createdAt,value
2023-02-24T00:02:01.212Z,6.33
2023-02-24T00:04:28.859Z,6.36
2023-02-24T00:06:55.365Z,6.20
2023-02-24T00:09:23.239Z,6.14
2023-02-24T00:11:57.716Z,5.88
2023-02-24T00:14:25.255Z,5.84
2023-02-24T00:16:52.498Z,6.02
2023-02-24T00:19:20.741Z,6.00
2023-02-24T00:21:47.472Z,6.02
2023-02-24T00:24:14.388Z,5.97
2023-02-24T00:26:41.029Z,5.92
2023-02-24T00:29:08.946Z,6.08
2023-02-24T00:31:39.573Z,5.93
2023-02-24T00:34:06.837Z,5.86
2023-02-24T00:36:34.028Z,5.77
2023-02-24T00:39:01.979Z,5.86
2023-02-24T00:41:32.368Z,5.84
2023-02-24T00:44:08.409Z,5.64
2023-02-24T00:46:39.310Z,5.37
2023-02-24T00:49:07.705Z,5.34
2023-02-24T00:51:41.122Z,5.28
2023-02-24T00:54:08.392Z,5.25
2023-02-24T00:56:34.985Z,5.31
2023-02-24T00:59:02.500Z,5.28
2023-02-24T01:01:31.850Z,5.33
2023-02-24T01:04:01.629Z,5.27
2023-02-24T01:06:29.300Z,5.17
2023-02-24T01:08:57.721Z,5.07
2023-02-24T01:11:44.075Z,4.84
2023-02-24T01:14:13.661Z,4.91
2023-02-24T01:16:44.738Z,5.01
2023-02-24T01:19:12.528Z,4.91
2023-02-24T01:21:40.833Z,4.90
2023-02-24T01:24:07.331Z,5.02
2023-02-24T01:26:34.698Z,5.06
2023-02-24T01:29:01.376Z,4.94
2023-02-24T01:31:28.795Z,4.90
2023-02-24T01:33:55.574Z,4.92
2023-02-24T01:36:23.797Z,4.94
2023-02-24T01:38:50.291Z,5.01
2023-02-24T01:41:18.583Z,4.72
2023-02-24T01:44:12.288Z,4.78
2023-02-24T01:46:39.828Z,4.87
2023-02-24T01:49:13.356Z,4.68
2023-02-24T01:51:45.441Z,4.85
2023-02-24T01:54:13.939Z,5.05
2023-02-24T01:56:41.392Z,4.89
2023-02-24T01:59:09.221Z,5.06
2023-02-24T02:01:43.035Z,4.89
2023-02-24T02:04:20.470Z,4.80
2023-02-24T02:06:48.208Z,4.58
2023-02-24T02:09:15.621Z,4.73
2023-02-24T02:11:42.655Z,4.60
2023-02-24T02:14:09.713Z,4.59
2023-02-24T02:16:56.514Z,4.59
2023-02-24T02:19:35.846Z,4.65
2023-02-24T02:22:08.265Z,4.69
2023-02-24T02:24:50.211Z,4.67
2023-02-24T02:27:35.088Z,4.81
2023-02-24T02:30:06.277Z,5.07
2023-02-24T02:32:38.824Z,4.84
2023-02-24T02:35:11.900Z,4.80
2023-02-24T02:37:48.276Z,4.72
2023-02-24T02:40:23.375Z,4.87
2023-02-24T02:43:02.127Z,4.93
2023-02-24T02:45:34.030Z,5.03
2023-02-24T02:48:15.606Z,4.97
2023-02-24T02:50:46.423Z,4.90
2023-02-24T02:53:24.567Z,4.87
2023-02-24T02:55:54.639Z,4.72
2023-02-24T02:58:26.178Z,4.82
2023-02-24T03:01:02.629Z,4.71
2023-02-24T03:03:32.238Z,4.99
2023-02-24T03:06:12.047Z,4.97
2023-02-24T03:08:40.181Z,4.96
2023-02-24T03:11:11.283Z,5.09
2023-02-24T03:13:41.108Z,5.04
2023-02-24T03:16:09.070Z,5.04
2023-02-24T03:18:38.153Z,5.03
2023-02-24T03:21:17.306Z,5.04
2023-02-24T03:23:47.022Z,5.03
2023-02-24T03:26:21.601Z,5.16
2023-02-24T03:28:58.224Z,5.08
2023-02-24T03:31:28.240Z,5.05
2023-02-24T03:34:03.700Z,5.10
2023-02-24T03:36:30.939Z,5.28
2023-02-24T03:38:58.565Z,5.37
2023-02-24T03:41:30.514Z,5.29
2023-02-24T03:43:58.886Z,5.40
2023-02-24T03:46:26.093Z,5.45
2023-02-24T03:48:58.562Z,5.46
2023-02-24T03:51:25.093Z,5.44
2023-02-24T03:54:01.908Z,5.45
2023-02-24T03:56:40.433Z,5.37
2023-02-24T03:59:23.739Z,5.31
2023-02-24T04:01:58.021Z,5.38
2023-02-24T04:04:45.975Z,5.25
2023-02-24T04:07:27.965Z,5.13
2023-02-24T04:09:57.123Z,5.22
2023-02-24T04:12:29.978Z,5.19
2023-02-24T04:15:15.522Z,5.16
2023-02-24T04:17:48.568Z,5.15
2023-02-24T04:20:20.646Z,5.07
2023-02-24T04:22:59.530Z,5.21
2023-02-24T04:25:26.824Z,5.19
2023-02-24T04:27:58.273Z,5.24
2023-02-24T04:30:26.948Z,5.33
2023-02-24T04:32:54.006Z,5.29
2023-02-24T04:35:22.235Z,5.36
2023-02-24T04:37:50.851Z,5.25
2023-02-24T04:40:18.765Z,5.15
2023-02-24T04:42:48.934Z,5.12
2023-02-24T04:45:19.440Z,5.08
2023-02-24T04:47:49.457Z,4.97
2023-02-24T04:50:25.609Z,4.97
2023-02-24T04:52:56.998Z,5.07
2023-02-24T04:55:25.289Z,5.20
2023-02-24T04:57:55.284Z,5.11
2023-02-24T05:00:22.704Z,5.14
2023-02-24T05:02:50.128Z,5.01
2023-02-24T05:05:17.788Z,5.02
2023-02-24T05:07:47.982Z,4.91
2023-02-24T05:10:15.342Z,4.75
2023-02-24T05:12:42.468Z,4.53
2023-02-24T05:15:09.163Z,4.80
2023-02-24T05:17:36.323Z,4.88
2023-02-24T05:20:21.791Z,4.74
2023-02-24T05:22:51.762Z,4.78
2023-02-24T05:25:20.072Z,4.66
2023-02-24T05:27:47.544Z,4.57
2023-02-24T05:30:14.536Z,4.70
2023-02-24T05:32:41.118Z,4.62
2023-02-24T05:35:07.767Z,4.59
2023-02-24T05:37:37.349Z,4.55
2023-02-24T05:40:04.379Z,4.75
2023-02-24T05:42:35.069Z,4.77
2023-02-24T05:45:02.037Z,4.71
2023-02-24T05:47:28.842Z,4.54
2023-02-24T05:49:56.894Z,4.64
2023-02-24T05:52:23.519Z,4.59
2023-02-24T05:54:50.469Z,4.75
2023-02-24T05:57:21.027Z,4.92
2023-02-24T05:59:50.933Z,4.91
2023-02-24T06:02:27.084Z,4.66
2023-02-24T06:04:54.285Z,4.69
2023-02-24T06:07:27.358Z,4.44
2023-02-24T06:09:57.800Z,4.42
2023-02-24T06:12:28.071Z,4.29
2023-02-24T06:14:54.788Z,4.38
2023-02-24T06:17:21.827Z,4.35
2023-02-24T06:19:50.003Z,4.30
2023-02-24T06:22:19.067Z,4.24
2023-02-24T06:24:46.000Z,4.14
2023-02-24T06:27:17.757Z,4.13
2023-02-24T06:29:45.278Z,4.26
2023-02-24T06:32:12.776Z,4.56
2023-02-24T06:34:39.598Z,4.34
2023-02-24T06:37:07.304Z,4.26
2023-02-24T06:39:36.612Z,4.26
2023-02-24T06:42:05.038Z,4.43
2023-02-24T06:44:32.606Z,4.43
2023-02-24T06:46:59.415Z,4.30
2023-02-24T06:49:26.772Z,4.57
2023-02-24T06:51:54.651Z,4.63
2023-02-24T06:54:28.340Z,4.61
2023-02-24T06:56:55.028Z,4.75
2023-02-24T06:59:28.496Z,4.99
2023-02-24T07:01:55.688Z,4.93
2023-02-24T07:04:27.779Z,4.89
2023-02-24T07:06:56.913Z,5.17
2023-02-24T07:09:24.766Z,5.10
2023-02-24T07:11:52.300Z,5.23
2023-02-24T07:14:20.747Z,5.29
2023-02-24T07:16:50.967Z,5.31
2023-02-24T07:19:17.438Z,5.42
2023-02-24T07:21:49.922Z,5.61
2023-02-24T07:24:24.721Z,5.19
2023-02-24T07:26:58.558Z,5.27
2023-02-24T07:29:26.254Z,5.29
2023-02-24T07:31:56.540Z,5.40
2023-02-24T07:34:24.939Z,5.91
2023-02-24T07:36:52.450Z,6.25
2023-02-24T07:39:19.572Z,6.31
2023-02-24T07:41:49.477Z,6.21
2023-02-24T07:44:17.291Z,6.48
2023-02-24T07:46:43.738Z,6.38
2023-02-24T07:49:12.127Z,6.79
2023-02-24T07:51:38.653Z,6.99
2023-02-24T07:54:05.306Z,8.05
2023-02-24T07:56:32.828Z,8.19
2023-02-24T07:59:11.195Z,9.11
2023-02-24T08:01:40.683Z,9.97
2023-02-24T08:04:08.156Z,10.58
2023-02-24T08:06:38.850Z,10.43
2023-02-24T08:09:19.033Z,10.93
2023-02-24T08:11:53.039Z,11.02
2023-02-24T08:14:20.490Z,10.58
2023-02-24T08:16:48.217Z,11.61
2023-02-24T08:19:20.192Z,11.75
2023-02-24T08:21:50.297Z,11.89
2023-02-24T08:24:25.290Z,10.79
2023-02-24T08:27:06.280Z,11.14
2023-02-24T08:29:40.110Z,10.72
2023-02-24T08:32:09.439Z,10.85
2023-02-24T08:34:36.467Z,11.06
2023-02-24T08:37:02.937Z,12.20
2023-02-24T08:39:30.264Z,12.38
2023-02-24T08:41:57.805Z,11.41
2023-02-24T08:44:27.012Z,12.26
2023-02-24T08:46:54.356Z,12.03
2023-02-24T08:49:24.852Z,11.68
2023-02-24T08:51:52.903Z,11.29
2023-02-24T08:54:32.079Z,10.96
2023-02-24T08:57:08.092Z,11.63
2023-02-24T08:59:39.260Z,12.03
2023-02-24T09:02:19.177Z,12.56
2023-02-24T09:04:46.712Z,12.27
2023-02-24T09:07:17.504Z,11.91
2023-02-24T09:09:44.069Z,11.34
2023-02-24T09:12:21.738Z,11.56
2023-02-24T09:14:49.903Z,12.98
2023-02-24T09:17:20.532Z,13.27
2023-02-24T09:19:50.938Z,13.52
2023-02-24T09:22:31.809Z,13.82
2023-02-24T09:25:21.803Z,13.63
2023-02-24T09:27:52.463Z,14.62
2023-02-24T09:30:35.897Z,14.09
2023-02-24T09:33:17.776Z,13.85
2023-02-24T09:35:46.771Z,14.15
2023-02-24T09:38:17.492Z,14.35
2023-02-24T09:40:52.046Z,14.18
2023-02-24T09:43:30.345Z,13.89
2023-02-24T09:46:00.803Z,13.97
2023-02-24T09:48:33.318Z,14.22
2023-02-24T09:51:06.065Z,15.01
2023-02-24T09:53:41.299Z,15.37
2023-02-24T09:56:07.880Z,15.09
2023-02-24T09:58:53.172Z,15.45
2023-02-24T10:01:23.390Z,15.96
2023-02-24T10:03:51.685Z,16.31
2023-02-24T10:06:20.986Z,16.68
2023-02-24T10:08:55.014Z,16.36
2023-02-24T10:11:35.062Z,15.67
2023-02-24T10:14:05.423Z,15.81
2023-02-24T10:16:41.543Z,15.64
2023-02-24T10:19:17.628Z,16.07
2023-02-24T10:22:03.218Z,16.09
2023-02-24T10:24:47.436Z,15.86
2023-02-24T10:27:17.409Z,16.68
2023-02-24T10:30:10.898Z,16.62
2023-02-24T10:32:58.764Z,16.58
2023-02-24T10:35:33.430Z,16.58
2023-02-24T10:38:05.288Z,15.91
2023-02-24T10:40:45.106Z,15.36
2023-02-24T10:43:17.738Z,15.73
2023-02-24T10:45:45.512Z,15.30
2023-02-24T10:48:42.790Z,14.97
2023-02-24T10:51:19.034Z,14.96
2023-02-24T10:54:08.408Z,14.86
2023-02-24T10:56:44.276Z,14.99
2023-02-24T10:59:24.620Z,15.22
2023-02-24T11:02:01.151Z,15.65
2023-02-24T11:04:32.374Z,15.67
2023-02-24T11:07:12.338Z,15.27
2023-02-24T11:09:52.645Z,16.15
2023-02-24T11:12:40.009Z,16.33
2023-02-24T11:15:44.364Z,15.84
2023-02-24T11:18:18.986Z,16.00
2023-02-24T11:20:49.837Z,15.53
2023-02-24T11:23:19.160Z,15.84
2023-02-24T11:25:51.317Z,16.21
2023-02-24T11:28:26.232Z,16.49
2023-02-24T11:30:59.176Z,15.96
2023-02-24T11:33:35.081Z,16.97
2023-02-24T11:36:02.592Z,16.74
2023-02-24T11:38:52.383Z,16.34
2023-02-24T11:41:26.040Z,16.81
2023-02-24T11:44:06.211Z,17.99
2023-02-24T11:46:41.626Z,18.25
2023-02-24T11:49:18.214Z,17.85
2023-02-24T11:51:44.675Z,17.41
2023-02-24T11:54:13.022Z,17.26
2023-02-24T11:56:43.975Z,17.00
2023-02-24T11:59:16.499Z,17.62
2023-02-24T12:02:03.849Z,17.20
2023-02-24T12:04:40.424Z,16.56
2023-02-24T12:07:10.483Z,16.49
2023-02-24T12:09:44.822Z,16.01
2023-02-24T12:12:18.456Z,16.12
2023-02-24T12:14:47.795Z,16.62
2023-02-24T12:17:32.863Z,16.35
2023-02-24T12:20:05.081Z,16.53
2023-02-24T12:22:44.667Z,15.88
2023-02-24T12:25:12.536Z,15.82
2023-02-24T12:27:51.240Z,15.66
2023-02-24T12:30:38.850Z,15.72
2023-02-24T12:33:05.508Z,15.97
2023-02-24T12:35:40.860Z,15.99
2023-02-24T12:38:18.057Z,15.57
2023-02-24T12:40:51.542Z,15.30
2023-02-24T12:43:45.173Z,16.02
2023-02-24T12:46:30.457Z,16.23
2023-02-24T12:49:15.293Z,15.92
2023-02-24T12:52:04.824Z,16.11
2023-02-24T12:54:31.381Z,16.16
2023-02-24T12:57:13.684Z,16.78
2023-02-24T12:59:40.879Z,16.97
2023-02-24T13:02:13.451Z,17.86
2023-02-24T13:04:48.714Z,18.15
2023-02-24T13:07:35.585Z,17.81
2023-02-24T13:10:20.980Z,17.94
2023-02-24T13:12:59.087Z,18.33
2023-02-24T13:15:27.430Z,17.92
2023-02-24T13:17:57.709Z,17.94
2023-02-24T13:20:25.807Z,18.35
2023-02-24T13:22:52.731Z,18.51
2023-02-24T13:25:23.603Z,18.63
2023-02-24T13:27:59.942Z,19.20
2023-02-24T13:30:28.922Z,18.73
2023-02-24T13:33:18.387Z,19.22
2023-02-24T13:35:45.805Z,19.13
2023-02-24T13:38:21.625Z,18.36
2023-02-24T13:40:48.117Z,19.19
2023-02-24T13:43:22.694Z,19.20
2023-02-24T13:45:54.924Z,19.30
2023-02-24T13:48:24.938Z,18.99
2023-02-24T13:50:54.389Z,18.88
2023-02-24T13:53:39.764Z,19.68
2023-02-24T13:56:15.428Z,20.02
2023-02-24T13:58:52.504Z,19.36
2023-02-24T14:01:20.957Z,19.70
2023-02-24T14:04:03.381Z,20.03
2023-02-24T14:06:29.901Z,19.05
2023-02-24T14:08:59.121Z,18.86
2023-02-24T14:11:29.220Z,18.75
2023-02-24T14:13:56.344Z,19.58
2023-02-24T14:16:41.831Z,19.00
2023-02-24T14:19:16.264Z,19.08
2023-02-24T14:21:50.709Z,19.70
2023-02-24T14:24:17.541Z,18.85
2023-02-24T14:26:51.333Z,19.14
2023-02-24T14:29:20.077Z,19.58
2023-02-24T14:31:47.515Z,18.76
2023-02-24T14:34:17.783Z,18.00
2023-02-24T14:36:45.344Z,18.16
2023-02-24T14:39:23.642Z,18.40
2023-02-24T14:41:51.643Z,18.17
2023-02-24T14:44:18.842Z,18.37
2023-02-24T14:46:47.281Z,18.86
2023-02-24T14:49:17.469Z,18.28
2023-02-24T14:51:44.372Z,17.47
2023-02-24T14:54:17.769Z,17.96
2023-02-24T14:56:44.312Z,17.49
2023-02-24T14:59:27.701Z,17.69
2023-02-24T15:01:55.451Z,17.19
2023-02-24T15:04:28.058Z,17.23
2023-02-24T15:06:54.572Z,17.40
2023-02-24T15:09:23.692Z,17.04
2023-02-24T15:11:50.777Z,17.26
2023-02-24T15:14:24.717Z,17.01
2023-02-24T15:16:53.036Z,16.53
2023-02-24T15:19:22.584Z,16.70
2023-02-24T15:21:49.013Z,16.71
2023-02-24T15:24:21.522Z,16.71
2023-02-24T15:27:11.428Z,16.33
2023-02-24T15:29:37.904Z,15.74
2023-02-24T15:32:07.641Z,16.11
2023-02-24T15:34:35.694Z,15.83
2023-02-24T15:37:22.383Z,15.46
2023-02-24T15:39:50.396Z,15.29
2023-02-24T15:42:16.854Z,15.09
2023-02-24T15:44:54.657Z,14.53
2023-02-24T15:47:26.065Z,14.32
2023-02-24T15:49:52.592Z,14.51
2023-02-24T15:52:21.991Z,14.80
2023-02-24T15:54:48.691Z,14.56
2023-02-24T15:57:16.497Z,14.42
2023-02-24T15:59:43.371Z,14.29
2023-02-24T16:02:14.135Z,14.17
2023-02-24T16:04:40.586Z,13.96
2023-02-24T16:07:10.929Z,13.76
2023-02-24T16:09:39.833Z,13.81
2023-02-24T16:12:12.445Z,13.75
2023-02-24T16:14:39.427Z,13.72
2023-02-24T16:17:08.792Z,13.63
2023-02-24T16:19:37.164Z,13.50
2023-02-24T16:22:03.748Z,13.43
2023-02-24T16:24:30.172Z,13.30
2023-02-24T16:26:56.723Z,13.22
2023-02-24T16:29:23.173Z,13.16
2023-02-24T16:31:49.857Z,13.06
2023-02-24T16:34:16.463Z,13.06
2023-02-24T16:36:43.748Z,12.99
2023-02-24T16:39:12.004Z,12.68
2023-02-24T16:41:38.533Z,12.72
2023-02-24T16:44:05.436Z,12.66
2023-02-24T16:46:35.928Z,12.60
2023-02-24T16:49:02.388Z,12.44
2023-02-24T16:51:29.061Z,12.62
2023-02-24T16:53:55.561Z,12.54
2023-02-24T16:56:22.313Z,12.52
2023-02-24T16:58:49.021Z,12.50
2023-02-24T17:01:20.661Z,12.36
2023-02-24T17:03:48.941Z,12.26
2023-02-24T17:06:15.433Z,12.13
2023-02-24T17:08:43.759Z,11.81
2023-02-24T17:11:12.460Z,11.67
2023-02-24T17:13:38.956Z,11.60
2023-02-24T17:16:05.475Z,11.54
2023-02-24T17:18:32.274Z,11.67
2023-02-24T17:20:58.729Z,11.44
2023-02-24T17:23:25.166Z,11.53
2023-02-24T17:25:56.740Z,11.17
2023-02-24T17:28:23.324Z,10.80
2023-02-24T17:30:49.969Z,10.73
2023-02-24T17:33:16.549Z,10.60
2023-02-24T17:35:43.217Z,10.33
2023-02-24T17:38:13.159Z,10.36
2023-02-24T17:40:40.510Z,10.34
2023-02-24T17:43:06.963Z,10.29
2023-02-24T17:45:33.946Z,10.27
2023-02-24T17:48:00.490Z,10.12
2023-02-24T17:50:27.113Z,9.99
2023-02-24T17:52:53.605Z,9.92
2023-02-24T17:55:20.137Z,9.74
2023-02-24T17:57:46.559Z,9.69
2023-02-24T18:00:13.236Z,9.43
2023-02-24T18:02:39.919Z,9.27
2023-02-24T18:05:06.797Z,9.16
2023-02-24T18:07:33.342Z,9.05
2023-02-24T18:09:59.801Z,9.23
2023-02-24T18:12:26.522Z,9.21
2023-02-24T18:15:06.901Z,9.30
2023-02-24T18:17:35.703Z,9.45
2023-02-24T18:20:02.461Z,9.27
2023-02-24T18:22:28.974Z,9.19
2023-02-24T18:24:55.453Z,9.19
2023-02-24T18:27:22.346Z,9.26
2023-02-24T18:29:48.860Z,9.11
2023-02-24T18:32:15.571Z,8.92
2023-02-24T18:34:42.232Z,9.04
2023-02-24T18:37:08.674Z,9.05
2023-02-24T18:39:35.152Z,9.10
2023-02-24T18:42:01.593Z,8.70
2023-02-24T18:44:28.218Z,8.75
2023-02-24T18:46:54.764Z,8.80
2023-02-24T18:49:21.256Z,8.77
2023-02-24T18:51:48.987Z,9.27
2023-02-24T18:54:16.180Z,9.92
2023-02-24T18:56:42.748Z,9.13
2023-02-24T18:59:09.192Z,9.00
2023-02-24T19:01:36.803Z,8.84
2023-02-24T19:04:03.921Z,8.64
2023-02-24T19:06:31.646Z,8.46
2023-02-24T19:08:59.677Z,8.40
2023-02-24T19:11:26.503Z,8.56
2023-02-24T19:13:53.283Z,8.55
2023-02-24T19:16:20.053Z,8.35
2023-02-24T19:18:49.750Z,8.32
2023-02-24T19:21:16.235Z,8.21
2023-02-24T19:23:42.688Z,8.53
2023-02-24T19:26:19.591Z,8.61
2023-02-24T19:28:46.230Z,8.48
2023-02-24T19:31:14.530Z,8.55
2023-02-24T19:33:41.106Z,8.84
2023-02-24T19:36:07.916Z,9.01
2023-02-24T19:38:34.426Z,8.99
2023-02-24T19:41:01.002Z,9.00
2023-02-24T19:43:27.450Z,9.01
2023-02-24T19:45:54.153Z,8.91
2023-02-24T19:48:20.665Z,8.75
2023-02-24T19:50:47.225Z,8.54
2023-02-24T19:53:13.704Z,9.41
2023-02-24T19:55:40.131Z,8.93
2023-02-24T19:58:06.628Z,8.74
2023-02-24T20:00:33.077Z,8.51
2023-02-24T20:02:59.669Z,8.12
2023-02-24T20:05:26.114Z,8.04
2023-02-24T20:07:52.543Z,7.95
2023-02-24T20:10:19.144Z,7.87
2023-02-24T20:12:45.606Z,7.85
2023-02-24T20:15:12.564Z,7.82
2023-02-24T20:17:39.177Z,7.83
2023-02-24T20:20:05.956Z,7.76
2023-02-24T20:22:32.447Z,7.50
2023-02-24T20:24:59.028Z,7.47
2023-02-24T20:27:25.571Z,7.62
2023-02-24T20:29:53.624Z,7.78
2023-02-24T20:32:20.307Z,7.69
2023-02-24T20:34:46.897Z,7.50
2023-02-24T20:37:13.372Z,7.51
2023-02-24T20:39:39.950Z,7.42
2023-02-24T20:42:06.438Z,7.18
2023-02-24T20:44:33.339Z,6.95
2023-02-24T20:46:59.947Z,6.82
2023-02-24T20:49:27.229Z,6.89
2023-02-24T20:51:53.778Z,6.98
2023-02-24T20:54:20.315Z,6.79
2023-02-24T20:56:47.021Z,6.98
2023-02-24T20:59:15.142Z,7.31
2023-02-24T21:01:42.212Z,7.67
2023-02-24T21:04:08.896Z,7.92
2023-02-24T21:06:35.976Z,7.57
2023-02-24T21:09:02.643Z,6.80
2023-02-24T21:11:30.226Z,6.61
2023-02-24T21:13:57.117Z,6.72
2023-02-24T21:16:24.430Z,6.74
2023-02-24T21:18:53.033Z,6.68
2023-02-24T21:21:19.856Z,6.70
2023-02-24T21:23:47.257Z,6.80
2023-02-24T21:26:14.333Z,6.81
2023-02-24T21:28:40.880Z,6.67
2023-02-24T21:31:12.178Z,6.36
2023-02-24T21:33:39.187Z,6.43
2023-02-24T21:36:07.123Z,6.83
2023-02-24T21:38:34.169Z,6.58
2023-02-24T21:41:05.411Z,6.48
2023-02-24T21:43:32.308Z,6.54
2023-02-24T21:46:02.788Z,6.23
2023-02-24T21:48:29.303Z,6.19
2023-02-24T21:50:59.518Z,6.24
2023-02-24T21:53:29.972Z,5.98
2023-02-24T21:56:10.825Z,5.72
2023-02-24T21:58:39.132Z,5.79
2023-02-24T22:01:09.893Z,5.78
2023-02-24T22:03:36.514Z,5.80
2023-02-24T22:06:03.163Z,5.78
2023-02-24T22:08:29.655Z,6.14
2023-02-24T22:11:00.170Z,5.99
2023-02-24T22:13:27.222Z,5.98
2023-02-24T22:15:53.895Z,6.40
2023-02-24T22:18:21.255Z,6.23
2023-02-24T22:20:47.851Z,6.35
2023-02-24T22:23:14.313Z,6.42
2023-02-24T22:25:40.784Z,6.11
2023-02-24T22:28:07.319Z,5.90
2023-02-24T22:30:33.804Z,6.11
2023-02-24T22:33:00.283Z,6.41
2023-02-24T22:35:26.721Z,6.10
2023-02-24T22:37:53.646Z,6.12
2023-02-24T22:40:20.876Z,5.97
2023-02-24T22:42:47.479Z,5.72
2023-02-24T22:45:13.963Z,5.90
2023-02-24T22:47:40.512Z,5.91
2023-02-24T22:50:07.482Z,5.78
2023-02-24T22:52:33.930Z,5.69
2023-02-24T22:55:00.615Z,5.58
2023-02-24T22:57:29.097Z,5.84
2023-02-24T22:59:56.030Z,5.86
2023-02-24T23:02:22.508Z,6.21
2023-02-24T23:04:49.007Z,6.01
2023-02-24T23:07:15.448Z,5.64
2023-02-24T23:09:52.363Z,5.57
2023-02-24T23:12:19.999Z,5.62
2023-02-24T23:14:46.715Z,5.53
2023-02-24T23:17:13.175Z,5.87
2023-02-24T23:19:39.617Z,5.38
2023-02-24T23:22:07.787Z,5.45
2023-02-24T23:24:34.473Z,5.42
2023-02-24T23:27:00.952Z,5.26
2023-02-24T23:29:27.742Z,6.11
2023-02-24T23:31:54.400Z,5.43
2023-02-24T23:34:21.227Z,5.27
2023-02-24T23:36:47.786Z,5.08
2023-02-24T23:39:15.944Z,5.04
2023-02-24T23:41:42.498Z,5.07
2023-02-24T23:44:09.375Z,5.17
2023-02-24T23:46:36.712Z,5.59
2023-02-24T23:49:03.655Z,4.99
2023-02-24T23:51:45.693Z,4.84
2023-02-24T23:54:14.637Z,4.67
2023-02-24T23:56:41.235Z,4.66
2023-02-24T23:59:07.741Z,4.53
